NCAR-RAP Real-Time Weather Data

Output produced by METARs form (06 May 2021  16:57 UTC)
found at http://weather.rap.ucar.edu/surface/
 
KEAU 061556Z 24005KT 10SM CLR 12/M01 A3013 RMK AO2 SLP209 T01171006
KEAU 061456Z VRB04KT 10SM FEW075 BKN095 11/01 A3015 RMK AO2 SLP214 T01060011 50001
KEAU 061356Z 28006KT 10SM BKN095 08/03 A3016 RMK AO2 SLP219 T00780028
KEAU 061256Z 26003KT 5SM BR BKN095 06/04 A3015 RMK AO2 SLP215 T00560039
KEAU 061234Z 24004KT 3SM BR BKN085 04/03 A3015 RMK AO2 T00440033
KEAU 061156Z 00000KT 2 1/2SM BR FEW080 03/02 A3015 RMK AO2 SLP216 T00330017 10072 20017 53004
KEAU 061143Z 00000KT 2 1/2SM BR CLR 03/02 A3015 RMK AO2 T00330022
KEAU 061110Z 24003KT 1 1/2SM BR CLR 03/02 A3014 RMK AO2 T00280017
KEAU 061056Z 22004KT 1/2SM FG CLR 02/01 A3014 RMK AO2 SLP212 T00220011
KEAU 061053Z 21004KT 3/4SM BR CLR 02/01 A3014 RMK AO2
KEAU 060956Z AUTO 24004KT 7SM CLR 03/02 A3013 RMK AO2 SLP210 T00330022
KEAU 060856Z AUTO 21005KT 10SM CLR 04/03 A3014 RMK AO2 SLP209 T00440028 58004
KEAU 060756Z AUTO 24005KT 10SM CLR 06/03 A3014 RMK AO2 SLP211 T00610033
KEAU 060656Z AUTO 24005KT 10SM FEW075 OVC090 07/03 A3014 RMK AO2 SLP211 T00670033
KEAU 060556Z AUTO 25004KT 10SM OVC070 07/03 A3015 RMK AO2 SLP212 T00720033 10111 20072 401560000 58002
KEAU 060456Z AUTO 24004KT 10SM BKN060 BKN070 OVC090 07/03 A3015 RMK AO2 SLP214 T00720033
KEAU 060356Z AUTO 24004KT 10SM BKN075 OVC090 08/03 A3016 RMK AO2 SLP216 T00780028
KEAU 060256Z AUTO 24005KT 10SM FEW065 OVC085 08/03 A3016 RMK AO2 SLP216 T00830028 53008